Japan Airlines Virtual Airport Information Service

Tokyo Narita International Airport

ICAO: RJAA Country: Japan
Latitude: 35.7647 Longitude: 140.386
Latest Arrival : JALJUMP (RJTT-RJAA) Latest Departure : JALJUMP (RJAA-RJOO)


WX CaptureLIVE
Data provided by noaa.gov | Fetched at 14:54:54

METAR : RJAA 281430Z 28005KT 250V320 7000 FEW002 BKN012 02/02 Q1004 NOSIG RMK 1ST002 7SC012 A2965

TAF : RJAA 281105Z 2812/2918 32006KT 8000 FEW006 BKN012 TEMPO 2812/2821 4000 BR FEW003 BKN005 TEMPO 2903/2906 29016G28KT


Runway Data for RJAA
Data provided by openaviationdata.com

Runway ID Mag Var Hdg Length Elevation Surface ILS Freq ILS Id ILS Slope
16L -7 156° 8202 ft 135 ft Asphalt 110.7 ITM 3
16R -7 156° 13132 ft 135 ft Asphalt 111.5 IKF 3
34L -7 336° 13132 ft 135 ft Asphalt 111.9 IYQ 3
34R -7 336° 8202 ft 135 ft Asphalt 110.9 ITJ 3

Tokyo Narita International Airport, Japan
Use only for reference purposes



Not for navigational purposes.